Time;durP1;ratioP1;P1;durP2;ratioP2;P2;SDS_P1;SDS_P2;PMS_P1;PMS_P2;Temp;Humidity;BMP_temperature;BMP_pressure;BME280_temperature;BME280_humidity;BME280_pressure;Samples;Min_cycle;Max_cycle;Signal;HPM_P1;HPM_P2
2023/11/03 00:00:48;;;;;;;9.82;3.22;;;;;;;;;;5024842;28;20500;-61
2023/11/03 00:03:15;;;;;;;11.85;3.72;;;;;;;;;;5019200;28;20421;-62
2023/11/03 00:05:42;;;;;;;12.02;3.58;;;;;;;;;;5020508;28;20815;-61
2023/11/03 00:08:09;;;;;;;9.85;3.30;;;;;;;;;;5020557;28;20471;-58
2023/11/03 00:10:38;;;;;;;13.60;3.60;;;;;;;;;;5020546;28;20583;-61
2023/11/03 00:13:05;;;;;;;9.30;3.35;;;;;;;;;;5018383;28;20828;-61
2023/11/03 00:15:34;;;;;;;11.70;3.22;;;;;;;;;;5020398;28;20418;-59
2023/11/03 00:18:01;;;;;;;7.40;3.17;;;;;;;;;;5020587;28;20948;-60
2023/11/03 00:20:28;;;;;;;8.05;3.10;;;;;;;;;;5018510;28;20436;-61
2023/11/03 00:22:56;;;;;;;7.55;2.97;;;;;;;;;;5020288;28;20407;-61
2023/11/03 00:25:23;;;;;;;12.13;3.65;;;;;;;;;;5020170;28;20419;-60
2023/11/03 00:27:52;;;;;;;12.15;3.22;;;;;;;;;;5021196;28;20407;-59
2023/11/03 00:30:19;;;;;;;8.97;3.87;;;;;;;;;;5027272;28;20411;-58
2023/11/03 00:32:47;;;;;;;8.50;2.83;;;;;;;;;;5025508;28;20450;-61
2023/11/03 00:35:14;;;;;;;7.80;2.97;;;;;;;;;;5023853;28;20427;-60
2023/11/03 00:37:41;;;;;;;8.65;2.95;;;;;;;;;;5020869;28;20423;-60
2023/11/03 00:40:10;;;;;;;7.60;2.78;;;;;;;;;;5024021;28;20480;-60
2023/11/03 00:42:37;;;;;;;7.97;3.00;;;;;;;;;;5021159;28;20417;-57
2023/11/03 00:45:06;;;;;;;6.07;3.03;;;;;;;;;;5023480;28;20418;-63
2023/11/03 00:47:33;;;;;;;6.93;2.20;;;;;;;;;;5024086;28;20916;-60
2023/11/03 00:50:00;;;;;;;4.32;1.90;;;;;;;;;;5018213;28;20415;-60
2023/11/03 00:52:28;;;;;;;8.83;2.90;;;;;;;;;;5023258;28;20423;-60
2023/11/03 00:54:54;;;;;;;5.72;2.60;;;;;;;;;;5023667;28;20913;-62
2023/11/03 00:57:23;;;;;;;4.97;2.03;;;;;;;;;;5021377;28;20408;-60
2023/11/03 00:59:50;;;;;;;5.20;2.20;;;;;;;;;;5023051;28;20471;-60
2023/11/03 01:02:18;;;;;;;4.30;2.13;;;;;;;;;;5023759;28;20449;-60
2023/11/03 01:04:45;;;;;;;3.35;1.92;;;;;;;;;;5021261;28;20880;-56
2023/11/03 01:07:12;;;;;;;4.72;2.30;;;;;;;;;;5020585;28;20474;-58
2023/11/03 01:09:39;;;;;;;4.90;2.50;;;;;;;;;;5020410;28;20413;-62
2023/11/03 01:12:06;;;;;;;3.85;2.50;;;;;;;;;;5023673;28;20522;-60
2023/11/03 01:14:34;;;;;;;4.88;1.92;;;;;;;;;;5022256;28;20475;-61
2023/11/03 01:17:01;;;;;;;4.32;1.55;;;;;;;;;;5022148;28;20423;-60
2023/11/03 01:19:30;;;;;;;4.35;1.80;;;;;;;;;;5024020;28;20421;-62
2023/11/03 01:21:59;;;;;;;3.60;2.10;;;;;;;;;;5019623;28;20435;-60
2023/11/03 01:24:26;;;;;;;5.25;2.08;;;;;;;;;;5022591;28;20788;-55
2023/11/03 01:26:53;;;;;;;4.35;2.20;;;;;;;;;;5029405;28;20430;-59
2023/11/03 01:29:21;;;;;;;5.43;1.83;;;;;;;;;;5024827;28;20782;-59
2023/11/03 01:31:48;;;;;;;4.85;2.20;;;;;;;;;;5023082;28;20454;-59
2023/11/03 01:34:15;;;;;;;5.03;2.33;;;;;;;;;;5020728;28;20826;-58
2023/11/03 01:36:43;;;;;;;3.45;1.98;;;;;;;;;;5024299;28;20419;-57
2023/11/03 01:39:11;;;;;;;2.65;1.50;;;;;;;;;;5024259;28;20446;-60
2023/11/03 01:41:38;;;;;;;4.00;2.22;;;;;;;;;;5016471;28;20433;-59
2023/11/03 01:44:06;;;;;;;4.45;2.00;;;;;;;;;;5022219;28;20407;-58
2023/11/03 01:46:34;;;;;;;4.75;2.35;;;;;;;;;;5023278;28;20446;-57
2023/11/03 01:49:01;;;;;;;5.63;2.13;;;;;;;;;;5020282;28;20540;-58
2023/11/03 01:51:28;;;;;;;4.87;2.20;;;;;;;;;;5021790;28;20834;-61
2023/11/03 01:53:57;;;;;;;3.67;1.70;;;;;;;;;;5025484;28;20659;-60
2023/11/03 01:56:24;;;;;;;4.35;2.17;;;;;;;;;;5025087;28;20434;-60
2023/11/03 01:58:51;;;;;;;3.45;1.70;;;;;;;;;;5021594;28;20416;-58
2023/11/03 02:01:19;;;;;;;4.77;2.40;;;;;;;;;;5020109;28;20475;-57
2023/11/03 02:03:46;;;;;;;3.85;2.00;;;;;;;;;;5016365;28;20478;-59
2023/11/03 02:06:13;;;;;;;5.73;1.90;;;;;;;;;;5020279;28;20420;-62
2023/11/03 02:08:40;;;;;;;5.50;1.85;;;;;;;;;;5020830;28;20413;-61
2023/11/03 02:11:08;;;;;;;5.10;1.88;;;;;;;;;;5022791;28;20461;-61
2023/11/03 02:13:35;;;;;;;5.03;1.90;;;;;;;;;;5021237;28;20480;-60
2023/11/03 02:16:03;;;;;;;5.03;2.47;;;;;;;;;;5020337;28;20416;-62
2023/11/03 02:18:30;;;;;;;6.38;2.88;;;;;;;;;;5022371;28;20942;-62
2023/11/03 02:20:57;;;;;;;4.05;2.47;;;;;;;;;;5021182;28;20487;-62
2023/11/03 02:23:26;;;;;;;4.15;2.17;;;;;;;;;;5020317;28;20420;-63
2023/11/03 02:25:53;;;;;;;6.72;2.50;;;;;;;;;;5016002;28;20413;-63
2023/11/03 02:28:21;;;;;;;4.18;1.92;;;;;;;;;;5021096;28;20417;-60
2023/11/03 02:30:48;;;;;;;4.93;2.50;;;;;;;;;;5022266;28;20457;-60
2023/11/03 02:33:15;;;;;;;5.28;2.67;;;;;;;;;;5015696;28;20788;-60
2023/11/03 02:35:42;;;;;;;6.32;2.38;;;;;;;;;;5021200;28;20452;-63
2023/11/03 02:38:09;;;;;;;7.85;2.85;;;;;;;;;;5021173;28;20941;-62
2023/11/03 02:40:38;;;;;;;5.60;2.97;;;;;;;;;;5022268;28;20460;-60
2023/11/03 02:43:05;;;;;;;5.50;2.28;;;;;;;;;;5018810;28;20421;-62
2023/11/03 02:45:32;;;;;;;5.37;2.50;;;;;;;;;;5018352;28;20482;-59
2023/11/03 02:47:59;;;;;;;3.55;2.42;;;;;;;;;;5022346;28;20419;-61
2023/11/03 02:50:26;;;;;;;3.92;2.47;;;;;;;;;;5020586;28;20422;-60
2023/11/03 02:52:54;;;;;;;5.03;2.05;;;;;;;;;;5022163;28;20469;-59
2023/11/03 02:55:21;;;;;;;8.95;2.40;;;;;;;;;;5019029;28;20428;-60
2023/11/03 02:57:49;;;;;;;3.53;1.85;;;;;;;;;;5021173;28;20897;-59
2023/11/03 03:00:17;;;;;;;3.83;2.17;;;;;;;;;;5021888;28;20414;-57
2023/11/03 03:02:44;;;;;;;4.60;1.80;;;;;;;;;;5018872;28;20417;-55
2023/11/03 03:05:11;;;;;;;5.97;2.53;;;;;;;;;;5019624;28;20803;-58
2023/11/03 03:07:45;;;;;;;7.50;2.20;;;;;;;;;;5022036;28;20415;-58
2023/11/03 03:10:12;;;;;;;4.35;2.25;;;;;;;;;;5016757;28;20889;-57
2023/11/03 03:12:41;;;;;;;3.75;1.92;;;;;;;;;;5019885;28;21121;-58
2023/11/03 03:15:10;;;;;;;6.55;2.75;;;;;;;;;;5021627;28;20415;-58
2023/11/03 03:17:37;;;;;;;5.45;2.70;;;;;;;;;;5019733;28;20412;-58
2023/11/03 03:20:04;;;;;;;3.95;1.90;;;;;;;;;;5019501;28;20408;-57
2023/11/03 03:22:31;;;;;;;3.53;2.15;;;;;;;;;;5021600;28;20430;-59
2023/11/03 03:24:58;;;;;;;4.00;2.38;;;;;;;;;;5019766;28;20424;-60
2023/11/03 03:27:25;;;;;;;3.33;1.87;;;;;;;;;;5019727;28;20462;-60
2023/11/03 03:29:52;;;;;;;3.25;2.08;;;;;;;;;;5022098;28;20415;-60
2023/11/03 03:32:21;;;;;;;6.97;2.58;;;;;;;;;;5019951;28;20491;-61
2023/11/03 03:34:47;;;;;;;4.55;1.98;;;;;;;;;;5019651;28;20409;-60
2023/11/03 03:37:15;;;;;;;5.38;2.13;;;;;;;;;;5021539;28;20419;-60
2023/11/03 03:39:42;;;;;;;4.60;2.45;;;;;;;;;;5020773;28;20418;-59
2023/11/03 03:42:09;;;;;;;7.83;2.57;;;;;;;;;;5020243;28;20430;-61
2023/11/03 03:44:39;;;;;;;6.35;2.45;;;;;;;;;;5018532;28;20420;-60
2023/11/03 03:47:07;;;;;;;5.25;2.03;;;;;;;;;;5020460;28;20417;-60
2023/11/03 03:49:35;;;;;;;6.05;2.40;;;;;;;;;;5020703;28;20419;-62
2023/11/03 03:52:02;;;;;;;4.70;2.40;;;;;;;;;;5018452;28;20465;-60
2023/11/03 03:54:30;;;;;;;6.32;2.58;;;;;;;;;;5020276;28;20441;-62
2023/11/03 03:56:57;;;;;;;6.27;2.83;;;;;;;;;;5020648;28;20454;-62
2023/11/03 03:59:24;;;;;;;4.82;2.20;;;;;;;;;;5018802;28;20413;-60
2023/11/03 04:01:51;;;;;;;3.95;2.58;;;;;;;;;;5020385;28;20485;-61
2023/11/03 04:04:18;;;;;;;5.75;2.50;;;;;;;;;;5023442;28;20410;-57
2023/11/03 04:06:46;;;;;;;4.93;2.28;;;;;;;;;;5022159;28;20412;-62
2023/11/03 04:09:13;;;;;;;5.63;2.80;;;;;;;;;;5024366;28;20426;-59
2023/11/03 04:11:40;;;;;;;4.80;3.00;;;;;;;;;;5024528;28;20457;-62
2023/11/03 04:14:07;;;;;;;6.00;2.63;;;;;;;;;;5022258;28;20428;-62
2023/11/03 04:16:34;;;;;;;6.57;2.50;;;;;;;;;;5024271;28;20864;-63
2023/11/03 04:19:02;;;;;;;4.07;2.20;;;;;;;;;;5023869;28;20468;-60
2023/11/03 04:21:29;;;;;;;5.78;2.60;;;;;;;;;;5019494;28;20923;-62
2023/11/03 04:23:57;;;;;;;4.83;2.30;;;;;;;;;;5018971;28;20432;-58
2023/11/03 04:26:24;;;;;;;7.28;2.60;;;;;;;;;;5021437;28;20907;-61
2023/11/03 04:28:52;;;;;;;7.27;2.63;;;;;;;;;;5021553;28;20764;-62
2023/11/03 04:31:19;;;;;;;7.05;3.10;;;;;;;;;;5023678;28;20406;-61
2023/11/03 04:33:46;;;;;;;6.47;2.42;;;;;;;;;;5021361;28;20415;-60
2023/11/03 04:36:13;;;;;;;6.10;2.93;;;;;;;;;;5024301;28;20415;-60
2023/11/03 04:38:40;;;;;;;7.22;2.70;;;;;;;;;;5022217;28;20827;-58
2023/11/03 04:41:08;;;;;;;7.03;2.85;;;;;;;;;;5022947;28;20893;-59
2023/11/03 04:43:38;;;;;;;6.22;2.45;;;;;;;;;;5024506;28;20476;-62
2023/11/03 04:46:08;;;;;;;7.15;2.60;;;;;;;;;;5022476;28;20417;-61
2023/11/03 04:48:35;;;;;;;6.72;2.47;;;;;;;;;;5021967;28;20413;-59
2023/11/03 04:51:02;;;;;;;5.93;2.97;;;;;;;;;;5024794;28;20498;-59
2023/11/03 04:53:29;;;;;;;7.43;2.38;;;;;;;;;;5022388;28;20444;-62
2023/11/03 04:55:56;;;;;;;6.35;2.30;;;;;;;;;;5022016;28;20950;-60
2023/11/03 04:58:25;;;;;;;6.72;2.53;;;;;;;;;;5024354;28;20415;-61
2023/11/03 05:00:52;;;;;;;5.85;1.98;;;;;;;;;;5022545;28;20898;-62
2023/11/03 05:03:19;;;;;;;7.80;2.90;;;;;;;;;;5022198;28;20416;-60
2023/11/03 05:05:47;;;;;;;5.53;2.50;;;;;;;;;;5022902;28;20916;-60
2023/11/03 05:08:14;;;;;;;6.80;1.98;;;;;;;;;;5023190;28;20419;-62
2023/11/03 05:10:41;;;;;;;7.10;3.20;;;;;;;;;;5023693;28;20419;-59
2023/11/03 05:13:08;;;;;;;9.73;3.28;;;;;;;;;;5020883;28;20412;-62
2023/11/03 05:15:36;;;;;;;10.20;2.75;;;;;;;;;;5021889;28;20410;-59
2023/11/03 05:18:03;;;;;;;9.40;3.20;;;;;;;;;;5023211;28;20419;-60
2023/11/03 05:20:30;;;;;;;9.07;2.53;;;;;;;;;;5020919;28;20444;-61
2023/11/03 05:22:58;;;;;;;6.27;2.83;;;;;;;;;;5022698;28;20461;-58
2023/11/03 05:25:25;;;;;;;8.55;3.05;;;;;;;;;;5022828;28;20415;-58
2023/11/03 05:27:52;;;;;;;8.55;3.40;;;;;;;;;;5020658;28;20768;-61
2023/11/03 05:30:21;;;;;;;10.95;2.70;;;;;;;;;;5022786;28;20419;-61
2023/11/03 05:32:49;;;;;;;9.75;2.97;;;;;;;;;;5022903;28;20514;-62
2023/11/03 05:35:16;;;;;;;5.25;2.60;;;;;;;;;;5022452;28;20411;-60
2023/11/03 05:37:44;;;;;;;9.30;3.17;;;;;;;;;;5018856;28;20421;-59
2023/11/03 05:40:12;;;;;;;9.52;2.88;;;;;;;;;;5021255;28;20434;-61
2023/11/03 05:42:39;;;;;;;8.60;3.17;;;;;;;;;;5022971;28;20500;-57
2023/11/03 05:45:07;;;;;;;9.02;2.85;;;;;;;;;;5021794;28;20421;-61
2023/11/03 05:47:34;;;;;;;8.10;2.63;;;;;;;;;;5021061;28;20416;-59
2023/11/03 05:50:04;;;;;;;8.85;2.75;;;;;;;;;;5023205;28;20484;-61
2023/11/03 05:52:31;;;;;;;6.20;2.80;;;;;;;;;;5019708;28;20442;-59
2023/11/03 05:54:58;;;;;;;10.55;3.10;;;;;;;;;;5022412;28;20469;-61
2023/11/03 05:57:26;;;;;;;7.15;3.10;;;;;;;;;;5027851;28;20890;-56
2023/11/03 05:59:53;;;;;;;9.65;2.83;;;;;;;;;;5022904;28;20444;-61
2023/11/03 06:02:20;;;;;;;9.77;2.70;;;;;;;;;;5020609;28;20429;-60
2023/11/03 06:04:47;;;;;;;7.10;3.00;;;;;;;;;;5022619;28;20407;-61
2023/11/03 06:07:16;;;;;;;5.90;2.90;;;;;;;;;;5020002;28;20408;-61
2023/11/03 06:09:43;;;;;;;7.78;2.30;;;;;;;;;;5026458;28;20446;-62
2023/11/03 06:12:11;;;;;;;10.13;3.08;;;;;;;;;;5029604;28;20403;-62
2023/11/03 06:14:38;;;;;;;8.45;3.20;;;;;;;;;;5026805;28;20424;-59
2023/11/03 06:17:05;;;;;;;7.10;2.47;;;;;;;;;;5022515;28;20410;-61
2023/11/03 06:19:33;;;;;;;8.05;2.85;;;;;;;;;;5019880;28;20487;-59
2023/11/03 06:22:00;;;;;;;9.80;3.20;;;;;;;;;;5021154;28;20505;-58
2023/11/03 06:24:29;;;;;;;6.90;2.70;;;;;;;;;;5021961;28;20411;-61
2023/11/03 06:26:59;;;;;;;6.85;3.17;;;;;;;;;;5015858;28;20876;-60
2023/11/03 06:29:26;;;;;;;8.93;3.20;;;;;;;;;;5020897;28;20454;-60
2023/11/03 06:31:53;;;;;;;7.30;3.45;;;;;;;;;;5022217;28;20862;-60
2023/11/03 06:34:20;;;;;;;16.20;3.92;;;;;;;;;;5019767;28;20419;-59
2023/11/03 06:36:47;;;;;;;7.90;3.00;;;;;;;;;;5020153;28;20821;-58
2023/11/03 06:39:17;;;;;;;11.48;3.45;;;;;;;;;;5020361;28;20416;-59
2023/11/03 06:41:46;;;;;;;9.90;3.72;;;;;;;;;;5021929;28;20500;-57
2023/11/03 06:44:13;;;;;;;10.27;3.40;;;;;;;;;;5021048;28;20476;-60
2023/11/03 06:46:41;;;;;;;10.65;4.10;;;;;;;;;;5019161;28;20875;-58
2023/11/03 06:49:08;;;;;;;8.77;2.90;;;;;;;;;;5021554;28;20415;-59
2023/11/03 06:51:36;;;;;;;8.82;3.17;;;;;;;;;;5020718;28;20453;-60
2023/11/03 06:54:04;;;;;;;9.10;2.67;;;;;;;;;;5019447;28;20488;-59
2023/11/03 06:56:31;;;;;;;7.57;2.92;;;;;;;;;;5021367;28;20947;-60
2023/11/03 06:59:00;;;;;;;8.70;3.08;;;;;;;;;;5021104;28;20415;-62
2023/11/03 07:01:27;;;;;;;9.88;3.45;;;;;;;;;;5018613;28;20851;-59
2023/11/03 07:03:54;;;;;;;9.35;2.83;;;;;;;;;;5021023;28;20419;-59
2023/11/03 07:06:21;;;;;;;9.52;3.28;;;;;;;;;;5020865;28;20418;-62
2023/11/03 07:08:48;;;;;;;7.25;2.65;;;;;;;;;;5020957;28;20798;-61
2023/11/03 07:11:16;;;;;;;10.77;3.10;;;;;;;;;;5019799;28;20428;-61
2023/11/03 07:13:44;;;;;;;8.40;3.20;;;;;;;;;;5019860;28;20416;-58
2023/11/03 07:16:13;;;;;;;11.25;3.00;;;;;;;;;;5021557;28;20580;-60
2023/11/03 07:18:40;;;;;;;11.13;2.90;;;;;;;;;;5019622;28;20570;-60
2023/11/03 07:21:09;;;;;;;10.80;3.22;;;;;;;;;;5019395;28;20421;-59
2023/11/03 07:23:36;;;;;;;9.32;3.35;;;;;;;;;;5022381;28;20426;-63
2023/11/03 07:26:03;;;;;;;8.57;2.93;;;;;;;;;;5022514;28;20883;-60
2023/11/03 07:28:31;;;;;;;8.55;3.40;;;;;;;;;;5018698;28;20421;-63
2023/11/03 07:30:58;;;;;;;8.18;2.97;;;;;;;;;;5015622;28;20986;-63
2023/11/03 07:33:26;;;;;;;7.82;2.95;;;;;;;;;;5024221;28;20424;-63
2023/11/03 07:35:54;;;;;;;10.68;3.47;;;;;;;;;;5012654;28;20434;-62
2023/11/03 07:38:21;;;;;;;8.40;2.78;;;;;;;;;;5026211;28;20415;-62
2023/11/03 07:40:48;;;;;;;9.70;3.20;;;;;;;;;;5022577;28;20417;-62
2023/11/03 07:43:15;;;;;;;6.70;3.10;;;;;;;;;;5022312;28;20427;-63
2023/11/03 07:45:42;;;;;;;9.70;3.65;;;;;;;;;;5022242;28;20420;-59
2023/11/03 07:48:09;;;;;;;10.65;2.63;;;;;;;;;;5023589;28;20474;-62
2023/11/03 07:50:37;;;;;;;9.85;3.38;;;;;;;;;;5023389;28;20961;-63
2023/11/03 07:53:07;;;;;;;10.73;3.35;;;;;;;;;;5022573;28;20413;-61
2023/11/03 07:55:35;;;;;;;9.70;2.60;;;;;;;;;;5025900;28;20415;-63
2023/11/03 07:58:03;;;;;;;8.20;3.08;;;;;;;;;;5021676;28;20446;-62
2023/11/03 08:00:31;;;;;;;8.50;3.20;;;;;;;;;;5016528;28;20979;-62
2023/11/03 08:02:59;;;;;;;7.82;2.17;;;;;;;;;;5021075;28;20906;-62
2023/11/03 08:05:26;;;;;;;4.83;2.67;;;;;;;;;;5025636;28;20509;-61
2023/11/03 08:07:55;;;;;;;7.22;3.15;;;;;;;;;;5021168;28;20477;-63
2023/11/03 08:10:22;;;;;;;8.85;2.78;;;;;;;;;;5023901;28;20415;-62
2023/11/03 08:12:49;;;;;;;8.23;2.83;;;;;;;;;;5022210;28;20423;-62
2023/11/03 08:15:16;;;;;;;12.07;3.77;;;;;;;;;;5024626;28;20407;-62
2023/11/03 08:17:43;;;;;;;9.20;3.55;;;;;;;;;;5022165;28;20496;-65
2023/11/03 08:20:11;;;;;;;8.00;3.40;;;;;;;;;;5019964;28;20504;-63
2023/11/03 08:22:39;;;;;;;9.85;3.80;;;;;;;;;;5018088;28;20969;-62
2023/11/03 08:25:08;;;;;;;9.18;3.17;;;;;;;;;;5023948;28;20420;-63
2023/11/03 08:27:35;;;;;;;8.13;3.37;;;;;;;;;;5021491;28;20505;-63
2023/11/03 08:30:03;;;;;;;7.22;3.15;;;;;;;;;;5023296;28;20415;-62
2023/11/03 08:32:31;;;;;;;7.75;2.80;;;;;;;;;;5022202;28;20516;-62
2023/11/03 08:34:58;;;;;;;6.47;2.53;;;;;;;;;;5021156;28;20496;-64
2023/11/03 08:37:26;;;;;;;9.23;3.30;;;;;;;;;;5024479;28;20449;-60
2023/11/03 08:39:53;;;;;;;7.83;3.37;;;;;;;;;;5021293;28;20838;-61
2023/11/03 08:42:21;;;;;;;10.45;3.67;;;;;;;;;;5024401;28;20432;-60
2023/11/03 08:44:48;;;;;;;8.98;2.70;;;;;;;;;;5023381;28;20417;-62
2023/11/03 08:47:16;;;;;;;9.55;3.42;;;;;;;;;;5022959;28;20971;-60
2023/11/03 08:49:43;;;;;;;9.35;2.83;;;;;;;;;;5018899;28;20420;-62
2023/11/03 08:52:10;;;;;;;7.85;3.72;;;;;;;;;;5021366;28;20480;-63
2023/11/03 08:54:37;;;;;;;8.93;2.47;;;;;;;;;;5022166;28;20415;-62
2023/11/03 08:57:05;;;;;;;5.03;2.72;;;;;;;;;;5024219;28;20450;-62
2023/11/03 08:59:34;;;;;;;7.35;2.47;;;;;;;;;;5021869;28;20420;-61
2023/11/03 09:02:01;;;;;;;7.38;3.08;;;;;;;;;;5022325;28;20427;-63
2023/11/03 09:04:28;;;;;;;7.32;2.45;;;;;;;;;;5023678;28;20403;-60
2023/11/03 09:06:55;;;;;;;8.47;2.50;;;;;;;;;;5019349;28;20411;-62
2023/11/03 09:09:23;;;;;;;5.78;2.13;;;;;;;;;;5023005;28;21074;-64
2023/11/03 09:11:50;;;;;;;9.60;3.63;;;;;;;;;;5020260;28;20421;-61
2023/11/03 09:14:17;;;;;;;8.60;3.28;;;;;;;;;;5023695;28;20417;-63
2023/11/03 09:16:45;;;;;;;7.85;2.97;;;;;;;;;;5022329;28;20416;-62
2023/11/03 09:19:12;;;;;;;8.20;3.05;;;;;;;;;;5016868;28;20423;-64
2023/11/03 09:21:41;;;;;;;11.50;3.53;;;;;;;;;;5025821;28;20496;-63
2023/11/03 09:24:08;;;;;;;6.10;2.65;;;;;;;;;;5024985;28;20587;-62
2023/11/03 09:26:36;;;;;;;8.43;2.53;;;;;;;;;;5024579;28;20481;-62
2023/11/03 09:29:03;;;;;;;7.93;3.00;;;;;;;;;;5021672;28;20507;-64
2023/11/03 09:31:30;;;;;;;7.22;3.35;;;;;;;;;;5023623;28;20417;-62
2023/11/03 09:33:58;;;;;;;7.93;2.22;;;;;;;;;;5020273;28;21148;-63
2023/11/03 09:36:25;;;;;;;9.00;3.45;;;;;;;;;;5019416;28;20781;-62
2023/11/03 09:38:52;;;;;;;8.23;2.97;;;;;;;;;;5018268;28;20958;-59
2023/11/03 09:41:21;;;;;;;9.90;3.60;;;;;;;;;;5020858;28;20412;-63
2023/11/03 09:43:48;;;;;;;10.55;4.05;;;;;;;;;;5024262;28;20912;-63
2023/11/03 09:46:15;;;;;;;6.68;2.67;;;;;;;;;;5021055;28;20488;-62
2023/11/03 09:48:43;;;;;;;11.68;3.38;;;;;;;;;;5022924;28;20426;-62
2023/11/03 09:51:12;;;;;;;7.43;2.85;;;;;;;;;;5021130;28;20424;-63
2023/11/03 09:53:39;;;;;;;7.78;2.80;;;;;;;;;;5021007;28;20417;-62
2023/11/03 09:56:07;;;;;;;10.90;4.78;;;;;;;;;;5022680;28;20481;-58
2023/11/03 09:58:36;;;;;;;7.80;2.65;;;;;;;;;;5020600;28;20412;-62
2023/11/03 10:01:08;;;;;;;10.50;3.67;;;;;;;;;;5019986;28;20424;-62
2023/11/03 10:03:37;;;;;;;5.65;3.00;;;;;;;;;;5016499;28;20434;-61
2023/11/03 10:06:04;;;;;;;6.78;2.70;;;;;;;;;;5021154;28;20417;-62
2023/11/03 10:08:33;;;;;;;7.80;2.70;;;;;;;;;;5018901;28;20413;-63
2023/11/03 10:11:00;;;;;;;9.40;3.72;;;;;;;;;;5022010;28;20430;-63
2023/11/03 10:13:32;;;;;;;9.37;2.80;;;;;;;;;;5021368;28;20500;-63
2023/11/03 10:16:00;;;;;;;9.35;3.08;;;;;;;;;;5020004;28;20482;-63
2023/11/03 10:18:28;;;;;;;10.60;3.25;;;;;;;;;;5019707;28;20776;-62
2023/11/03 10:20:58;;;;;;;10.90;4.32;;;;;;;;;;5019792;28;20417;-60
2023/11/03 10:23:26;;;;;;;7.60;3.70;;;;;;;;;;5016120;28;20535;-60
2023/11/03 10:25:54;;;;;;;11.32;3.28;;;;;;;;;;5020831;28;20434;-63
2023/11/03 10:28:24;;;;;;;7.82;3.83;;;;;;;;;;5005444;28;20445;-63
2023/11/03 10:30:55;;;;;;;8.43;3.13;;;;;;;;;;5015109;28;20428;-65
2023/11/03 10:33:23;;;;;;;8.63;3.55;;;;;;;;;;5016776;28;20519;-68
2023/11/03 10:35:51;;;;;;;7.25;3.70;;;;;;;;;;5011300;28;20455;-64
2023/11/03 10:38:19;;;;;;;7.80;3.80;;;;;;;;;;5016296;28;20418;-63
2023/11/03 10:40:47;;;;;;;9.85;3.10;;;;;;;;;;5023438;28;20499;-63
2023/11/03 10:43:15;;;;;;;8.00;3.28;;;;;;;;;;5024854;28;20434;-65
2023/11/03 10:45:48;;;;;;;10.27;3.30;;;;;;;;;;5013983;28;20460;-61
2023/11/03 10:48:19;;;;;;;8.88;3.25;;;;;;;;;;5017552;28;20403;-62
2023/11/03 10:50:51;;;;;;;8.57;2.97;;;;;;;;;;5024338;28;20447;-61
2023/11/03 10:53:20;;;;;;;8.90;3.00;;;;;;;;;;5022866;28;20411;-59
2023/11/03 10:55:50;;;;;;;9.40;4.00;;;;;;;;;;5023476;28;20895;-59
2023/11/03 10:58:18;;;;;;;7.45;2.90;;;;;;;;;;5021649;28;20493;-60
2023/11/03 11:00:49;;;;;;;9.10;2.65;;;;;;;;;;5016074;28;20903;-62
2023/11/03 11:03:29;;;;;;;10.40;3.50;;;;;;;;;;5021121;28;20841;-68
2023/11/03 11:05:58;;;;;;;9.52;3.20;;;;;;;;;;5020611;28;20825;-66
2023/11/03 11:08:27;;;;;;;9.85;3.13;;;;;;;;;;5022275;28;20455;-65
2023/11/03 11:10:54;;;;;;;7.87;3.07;;;;;;;;;;5018337;28;20467;-65
2023/11/03 11:13:24;;;;;;;10.48;3.08;;;;;;;;;;5010951;28;20412;-64
2023/11/03 11:16:04;;;;;;;8.90;3.00;;;;;;;;;;5019745;28;20421;-65
2023/11/03 11:18:33;;;;;;;9.70;2.80;;;;;;;;;;5022917;28;20426;-66
2023/11/03 11:21:03;;;;;;;9.65;3.05;;;;;;;;;;5021234;28;20412;-65
2023/11/03 11:23:33;;;;;;;8.13;2.80;;;;;;;;;;5022174;28;20431;-64
2023/11/03 11:26:01;;;;;;;6.93;2.63;;;;;;;;;;5023799;28;20420;-65
2023/11/03 11:28:32;;;;;;;9.30;3.17;;;;;;;;;;5022626;28;20417;-65
2023/11/03 11:30:59;;;;;;;7.97;2.80;;;;;;;;;;5019564;28;20839;-66
2023/11/03 11:33:29;;;;;;;11.85;3.10;;;;;;;;;;5021138;28;20407;-66
2023/11/03 11:35:56;;;;;;;11.70;3.42;;;;;;;;;;5019707;28;20419;-66
2023/11/03 11:38:26;;;;;;;11.80;3.30;;;;;;;;;;5017691;28;20417;-67
2023/11/03 11:40:54;;;;;;;9.07;3.38;;;;;;;;;;5019835;28;20415;-66
2023/11/03 11:43:22;;;;;;;12.95;3.85;;;;;;;;;;5016409;28;20525;-66
2023/11/03 11:45:52;;;;;;;8.68;2.80;;;;;;;;;;5019877;28;20420;-68
2023/11/03 11:48:19;;;;;;;10.23;2.92;;;;;;;;;;5020013;28;20626;-68
2023/11/03 11:50:48;;;;;;;8.25;3.05;;;;;;;;;;5024799;28;20938;-68
2023/11/03 11:53:15;;;;;;;8.52;2.78;;;;;;;;;;5016276;28;20411;-68
2023/11/03 11:55:43;;;;;;;9.70;2.50;;;;;;;;;;5023988;28;20802;-67
2023/11/03 11:58:11;;;;;;;10.23;3.10;;;;;;;;;;5022597;28;20442;-68
2023/11/03 12:00:39;;;;;;;10.65;2.88;;;;;;;;;;5017782;28;20758;-67
2023/11/03 12:03:09;;;;;;;12.68;3.40;;;;;;;;;;5018183;28;20424;-67
2023/11/03 12:05:36;;;;;;;10.20;3.28;;;;;;;;;;5021625;28;20472;-67
2023/11/03 12:08:04;;;;;;;13.02;3.08;;;;;;;;;;5017886;28;20407;-67
2023/11/03 12:10:33;;;;;;;12.15;3.35;;;;;;;;;;5020688;28;20422;-67
2023/11/03 12:13:00;;;;;;;10.30;3.60;;;;;;;;;;5022150;28;20417;-68
2023/11/03 12:15:27;;;;;;;11.20;2.92;;;;;;;;;;5020178;28;20454;-68
2023/11/03 12:17:54;;;;;;;8.45;3.35;;;;;;;;;;5019248;28;20469;-67
2023/11/03 12:20:22;;;;;;;13.20;3.50;;;;;;;;;;5017804;28;20405;-67
2023/11/03 12:22:50;;;;;;;10.43;3.58;;;;;;;;;;5023826;28;20423;-67
2023/11/03 12:25:17;;;;;;;9.27;3.42;;;;;;;;;;5026875;28;20765;-67
2023/11/03 12:27:44;;;;;;;8.15;2.78;;;;;;;;;;5024870;28;20419;-66
2023/11/03 12:30:12;;;;;;;11.75;3.22;;;;;;;;;;5024871;28;20421;-67
2023/11/03 12:32:39;;;;;;;10.77;4.10;;;;;;;;;;5023807;28;20423;-67
2023/11/03 12:35:10;;;;;;;9.63;3.07;;;;;;;;;;5027821;28;20419;-68
2023/11/03 12:37:42;;;;;;;8.52;3.25;;;;;;;;;;5022981;28;20830;-66
2023/11/03 12:40:20;;;;;;;12.48;3.15;;;;;;;;;;5026291;28;20422;-66
2023/11/03 12:42:48;;;;;;;11.23;3.28;;;;;;;;;;5024827;28;20420;-66
2023/11/03 12:45:16;;;;;;;8.25;3.10;;;;;;;;;;5019793;28;20453;-66
2023/11/03 12:47:44;;;;;;;8.80;3.03;;;;;;;;;;5024618;28;20445;-65
2023/11/03 12:50:17;;;;;;;12.67;3.77;;;;;;;;;;5022972;28;20889;-65
2023/11/03 12:52:45;;;;;;;10.30;2.60;;;;;;;;;;5020505;28;20419;-65
2023/11/03 12:55:12;;;;;;;8.73;2.67;;;;;;;;;;5024686;28;20443;-62
2023/11/03 12:57:43;;;;;;;8.30;3.25;;;;;;;;;;5028110;28;20519;-68
2023/11/03 13:00:10;;;;;;;7.07;2.58;;;;;;;;;;5020380;28;20465;-62
2023/11/03 13:02:39;;;;;;;10.88;2.78;;;;;;;;;;5025924;28;20450;-62
2023/11/03 13:05:07;;;;;;;8.90;2.53;;;;;;;;;;5025897;28;20517;-65
2023/11/03 13:07:34;;;;;;;8.90;2.83;;;;;;;;;;5022694;28;20537;-64
2023/11/03 13:10:03;;;;;;;8.93;2.78;;;;;;;;;;5021001;28;20417;-65
2023/11/03 13:12:30;;;;;;;11.05;2.42;;;;;;;;;;5023331;28;20419;-64
2023/11/03 13:14:57;;;;;;;11.15;2.95;;;;;;;;;;5025717;28;20415;-64
2023/11/03 13:17:24;;;;;;;7.82;2.80;;;;;;;;;;5026480;28;20422;-64
2023/11/03 13:19:53;;;;;;;9.77;3.08;;;;;;;;;;5020485;28;20409;-64
2023/11/03 13:22:20;;;;;;;7.35;2.60;;;;;;;;;;5022113;28;20419;-65
2023/11/03 13:24:47;;;;;;;9.05;2.20;;;;;;;;;;5022793;28;20431;-62
2023/11/03 13:27:16;;;;;;;8.48;2.88;;;;;;;;;;5019435;28;20949;-62
2023/11/03 13:29:43;;;;;;;9.03;2.67;;;;;;;;;;5024542;28;20422;-64
2023/11/03 13:32:10;;;;;;;10.25;2.88;;;;;;;;;;5022550;28;20430;-64
2023/11/03 13:34:38;;;;;;;9.25;2.60;;;;;;;;;;5019508;28;20896;-65
2023/11/03 13:37:05;;;;;;;10.27;2.53;;;;;;;;;;5018128;28;20467;-64
2023/11/03 13:39:33;;;;;;;7.85;2.65;;;;;;;;;;5021691;28;20422;-64
2023/11/03 13:42:01;;;;;;;11.38;3.03;;;;;;;;;;5018413;28;20494;-64
2023/11/03 13:44:29;;;;;;;8.00;2.20;;;;;;;;;;5019962;28;20458;-64
2023/11/03 13:46:56;;;;;;;8.25;2.53;;;;;;;;;;5020376;28;20834;-64
2023/11/03 13:49:25;;;;;;;9.43;2.65;;;;;;;;;;5015807;28;20417;-64
2023/11/03 13:51:52;;;;;;;9.20;2.63;;;;;;;;;;5021359;28;20429;-63
2023/11/03 13:54:20;;;;;;;10.93;3.08;;;;;;;;;;5021936;28;20410;-64
2023/11/03 13:56:47;;;;;;;10.57;3.45;;;;;;;;;;5003251;28;20420;-63
2023/11/03 13:59:14;;;;;;;9.73;3.30;;;;;;;;;;5015718;28;20519;-65
2023/11/03 14:01:43;;;;;;;10.95;2.60;;;;;;;;;;5023237;28;20414;-65
2023/11/03 14:04:10;;;;;;;10.07;2.83;;;;;;;;;;5023086;28;20479;-65
2023/11/03 14:06:37;;;;;;;8.13;2.83;;;;;;;;;;5020347;28;20542;-64
2023/11/03 14:09:06;;;;;;;10.05;3.03;;;;;;;;;;5018029;28;20442;-64
2023/11/03 14:11:37;;;;;;;11.93;2.97;;;;;;;;;;5019494;28;20423;-64
2023/11/03 14:14:04;;;;;;;9.75;2.30;;;;;;;;;;5020443;28;20483;-64
2023/11/03 14:16:31;;;;;;;8.75;2.70;;;;;;;;;;5022130;28;20414;-64
2023/11/03 14:19:00;;;;;;;8.82;2.65;;;;;;;;;;5019930;28;20413;-65
2023/11/03 14:21:27;;;;;;;13.05;2.95;;;;;;;;;;5019143;28;20426;-63
2023/11/03 14:23:54;;;;;;;5.85;2.25;;;;;;;;;;5019403;28;20527;-62
2023/11/03 14:26:23;;;;;;;9.07;3.03;;;;;;;;;;5025859;28;20415;-62
2023/11/03 14:28:50;;;;;;;7.32;2.60;;;;;;;;;;5020510;28;20444;-66
2023/11/03 14:31:17;;;;;;;10.27;2.80;;;;;;;;;;5012771;28;20426;-63
2023/11/03 14:33:45;;;;;;;10.50;2.90;;;;;;;;;;5025464;28;20410;-63
2023/11/03 14:36:14;;;;;;;9.02;2.45;;;;;;;;;;5019642;28;21730;-63
2023/11/03 14:38:42;;;;;;;11.00;2.95;;;;;;;;;;5021900;28;20514;-64
2023/11/03 14:41:10;;;;;;;7.68;2.72;;;;;;;;;;5023003;28;20421;-63
2023/11/03 14:43:39;;;;;;;9.75;2.80;;;;;;;;;;5019372;28;20416;-62